sensor_id;sensor_type;location;lat;lon;timestamp;temperature;humidity
59067;DHT22;44854;50.838;4.438;2023-03-01T05:22:55;0.40;99.90
59067;DHT22;44854;50.838;4.438;2023-03-01T05:25:21;0.40;99.90
59067;DHT22;44854;50.838;4.438;2023-03-01T05:27:47;0.30;99.90
59067;DHT22;44854;50.838;4.438;2023-03-01T05:30:13;0.30;99.90
59067;DHT22;44854;50.838;4.438;2023-03-01T05:32:43;0.30;99.90
59067;DHT22;44854;50.838;4.438;2023-03-01T05:35:09;0.30;99.90
59067;DHT22;44854;50.838;4.438;2023-03-01T05:37:40;0.30;99.90
59067;DHT22;44854;50.838;4.438;2023-03-01T05:40:07;0.30;99.90
59067;DHT22;44854;50.838;4.438;2023-03-01T05:42:41;0.30;99.90
59067;DHT22;44854;50.838;4.438;2023-03-01T05:45:07;0.30;99.90
59067;DHT22;44854;50.838;4.438;2023-03-01T05:47:34;0.20;99.90
59067;DHT22;44854;50.838;4.438;2023-03-01T05:50:00;0.20;99.90
59067;DHT22;44854;50.838;4.438;2023-03-01T05:52:26;0.20;99.90
59067;DHT22;44854;50.838;4.438;2023-03-01T05:54:52;0.20;99.90
59067;DHT22;44854;50.838;4.438;2023-03-01T05:57:17;0.10;99.90
59067;DHT22;44854;50.838;4.438;2023-03-01T05:59:43;0.10;99.90
59067;DHT22;44854;50.838;4.438;2023-03-01T06:02:09;0.10;99.90
59067;DHT22;44854;50.838;4.438;2023-03-01T06:04:34;0.20;99.90
59067;DHT22;44854;50.838;4.438;2023-03-01T06:07:00;0.20;99.90
59067;DHT22;44854;50.838;4.438;2023-03-01T06:09:25;0.10;99.90
59067;DHT22;44854;50.838;4.438;2023-03-01T06:11:51;0.20;99.90
59067;DHT22;44854;50.838;4.438;2023-03-01T06:14:16;0.10;99.90
59067;DHT22;44854;50.838;4.438;2023-03-01T06:16:42;0.20;99.90
59067;DHT22;44854;50.838;4.438;2023-03-01T06:19:07;0.20;99.90
59067;DHT22;44854;50.838;4.438;2023-03-01T06:21:33;0.20;99.90
59067;DHT22;44854;50.838;4.438;2023-03-01T06:23:58;0.20;99.90
59067;DHT22;44854;50.838;4.438;2023-03-01T06:26:24;0.20;99.90
59067;DHT22;44854;50.838;4.438;2023-03-01T06:28:49;0.30;99.90
59067;DHT22;44854;50.838;4.438;2023-03-01T06:31:15;0.30;99.90
59067;DHT22;44854;50.838;4.438;2023-03-01T06:33:41;0.20;99.90
59067;DHT22;44854;50.838;4.438;2023-03-01T06:36:06;0.10;99.90
59067;DHT22;44854;50.838;4.438;2023-03-01T06:38:32;0.30;99.90
59067;DHT22;44854;50.838;4.438;2023-03-01T06:40:58;0.30;99.90
59067;DHT22;44854;50.838;4.438;2023-03-01T06:43:23;0.20;99.90
59067;DHT22;44854;50.838;4.438;2023-03-01T06:45:49;0.10;99.90
59067;DHT22;44854;50.838;4.438;2023-03-01T06:48:17;0.10;99.90
59067;DHT22;44854;50.838;4.438;2023-03-01T06:50:43;0.00;99.90
59067;DHT22;44854;50.838;4.438;2023-03-01T06:53:08;0.00;99.90
59067;DHT22;44854;50.838;4.438;2023-03-01T06:55:34;0.10;99.90
59067;DHT22;44854;50.838;4.438;2023-03-01T06:58:01;0.10;99.90
59067;DHT22;44854;50.838;4.438;2023-03-01T07:00:27;0.20;99.90
59067;DHT22;44854;50.838;4.438;2023-03-01T07:02:52;0.20;99.90
59067;DHT22;44854;50.838;4.438;2023-03-01T07:05:18;0.20;99.90
59067;DHT22;44854;50.838;4.438;2023-03-01T07:07:44;0.20;99.90
59067;DHT22;44854;50.838;4.438;2023-03-01T07:10:10;0.20;99.90
59067;DHT22;44854;50.838;4.438;2023-03-01T07:12:35;0.30;99.90
59067;DHT22;44854;50.838;4.438;2023-03-01T07:15:01;0.40;99.90
59067;DHT22;44854;50.838;4.438;2023-03-01T07:17:26;0.40;99.90
59067;DHT22;44854;50.838;4.438;2023-03-01T07:19:52;0.50;99.90
59067;DHT22;44854;50.838;4.438;2023-03-01T07:22:17;0.50;99.90
59067;DHT22;44854;50.838;4.438;2023-03-01T07:24:44;0.60;99.90
59067;DHT22;44854;50.838;4.438;2023-03-01T07:27:10;0.60;99.90
59067;DHT22;44854;50.838;4.438;2023-03-01T07:29:36;0.60;99.90
59067;DHT22;44854;50.838;4.438;2023-03-01T07:32:02;0.70;99.90
59067;DHT22;44854;50.838;4.438;2023-03-01T07:34:28;0.70;99.90
59067;DHT22;44854;50.838;4.438;2023-03-01T07:36:53;0.70;99.90
59067;DHT22;44854;50.838;4.438;2023-03-01T07:39:19;0.70;99.90
59067;DHT22;44854;50.838;4.438;2023-03-01T07:41:44;0.70;99.90
59067;DHT22;44854;50.838;4.438;2023-03-01T07:44:10;0.70;99.90
59067;DHT22;44854;50.838;4.438;2023-03-01T07:46:36;0.80;99.90
59067;DHT22;44854;50.838;4.438;2023-03-01T07:49:01;0.90;99.90
59067;DHT22;44854;50.838;4.438;2023-03-01T07:51:27;1.00;99.90
59067;DHT22;44854;50.838;4.438;2023-03-01T07:53:52;1.10;99.90
59067;DHT22;44854;50.838;4.438;2023-03-01T07:56:18;1.20;99.90
59067;DHT22;44854;50.838;4.438;2023-03-01T07:58:45;1.30;99.90
59067;DHT22;44854;50.838;4.438;2023-03-01T08:01:12;1.40;99.90
59067;DHT22;44854;50.838;4.438;2023-03-01T08:03:38;1.40;99.90
59067;DHT22;44854;50.838;4.438;2023-03-01T08:06:04;1.40;99.90
59067;DHT22;44854;50.838;4.438;2023-03-01T08:08:30;1.40;99.90
59067;DHT22;44854;50.838;4.438;2023-03-01T08:10:56;1.60;99.90
59067;DHT22;44854;50.838;4.438;2023-03-01T08:13:22;1.60;99.90
59067;DHT22;44854;50.838;4.438;2023-03-01T08:15:51;1.60;99.90
59067;DHT22;44854;50.838;4.438;2023-03-01T08:18:17;1.70;99.90
59067;DHT22;44854;50.838;4.438;2023-03-01T08:20:43;1.80;99.90
59067;DHT22;44854;50.838;4.438;2023-03-01T08:23:08;1.90;99.90
59067;DHT22;44854;50.838;4.438;2023-03-01T08:25:34;2.00;99.90
59067;DHT22;44854;50.838;4.438;2023-03-01T08:27:59;2.00;99.90
59067;DHT22;44854;50.838;4.438;2023-03-01T08:30:25;2.10;99.90
59067;DHT22;44854;50.838;4.438;2023-03-01T08:32:53;2.20;99.90
59067;DHT22;44854;50.838;4.438;2023-03-01T08:35:18;2.20;99.90
59067;DHT22;44854;50.838;4.438;2023-03-01T08:37:44;2.20;99.90
59067;DHT22;44854;50.838;4.438;2023-03-01T08:40:10;2.30;99.90
59067;DHT22;44854;50.838;4.438;2023-03-01T08:42:36;2.30;99.90
59067;DHT22;44854;50.838;4.438;2023-03-01T08:45:02;2.20;99.90
59067;DHT22;44854;50.838;4.438;2023-03-01T08:47:28;2.30;99.90
59067;DHT22;44854;50.838;4.438;2023-03-01T08:49:54;2.40;99.90
59067;DHT22;44854;50.838;4.438;2023-03-01T08:52:20;2.50;99.90
59067;DHT22;44854;50.838;4.438;2023-03-01T08:54:48;2.60;99.90
59067;DHT22;44854;50.838;4.438;2023-03-01T08:57:14;2.70;99.90
59067;DHT22;44854;50.838;4.438;2023-03-01T08:59:39;2.80;99.90
59067;DHT22;44854;50.838;4.438;2023-03-01T09:02:08;3.00;99.90
59067;DHT22;44854;50.838;4.438;2023-03-01T09:04:35;3.00;99.90
59067;DHT22;44854;50.838;4.438;2023-03-01T09:07:01;3.00;99.90
59067;DHT22;44854;50.838;4.438;2023-03-01T09:09:27;3.20;99.90
59067;DHT22;44854;50.838;4.438;2023-03-01T09:11:53;3.10;99.90
59067;DHT22;44854;50.838;4.438;2023-03-01T09:14:19;3.10;99.90
59067;DHT22;44854;50.838;4.438;2023-03-01T09:16:44;3.20;99.90
59067;DHT22;44854;50.838;4.438;2023-03-01T09:19:10;3.40;99.90
59067;DHT22;44854;50.838;4.438;2023-03-01T09:21:36;3.20;99.90
59067;DHT22;44854;50.838;4.438;2023-03-01T09:24:02;3.40;99.90
59067;DHT22;44854;50.838;4.438;2023-03-01T09:26:28;3.60;99.90
59067;DHT22;44854;50.838;4.438;2023-03-01T09:28:54;3.50;99.90
59067;DHT22;44854;50.838;4.438;2023-03-01T09:31:20;3.60;99.90
59067;DHT22;44854;50.838;4.438;2023-03-01T09:33:47;3.60;99.90
59067;DHT22;44854;50.838;4.438;2023-03-01T09:36:14;3.70;99.90
59067;DHT22;44854;50.838;4.438;2023-03-01T09:38:40;3.80;99.90
59067;DHT22;44854;50.838;4.438;2023-03-01T09:43:50;3.90;99.90
59067;DHT22;44854;50.838;4.438;2023-03-01T09:46:22;3.90;99.90
59067;DHT22;44854;50.838;4.438;2023-03-01T09:48:50;3.90;99.90
59067;DHT22;44854;50.838;4.438;2023-03-01T09:51:23;4.00;99.90
59067;DHT22;44854;50.838;4.438;2023-03-01T09:53:50;4.10;99.90
59067;DHT22;44854;50.838;4.438;2023-03-01T10:06:35;4.30;99.90
59067;DHT22;44854;50.838;4.438;2023-03-01T10:09:16;4.40;99.90
59067;DHT22;44854;50.838;4.438;2023-03-01T10:11:45;4.20;99.90
59067;DHT22;44854;50.838;4.438;2023-03-01T10:14:33;4.20;99.90
59067;DHT22;44854;50.838;4.438;2023-03-01T10:19:48;4.50;99.90
59067;DHT22;44854;50.838;4.438;2023-03-01T10:22:29;4.60;99.90
59067;DHT22;44854;50.838;4.438;2023-03-01T10:24:57;4.70;99.90
59067;DHT22;44854;50.838;4.438;2023-03-01T10:27:24;4.90;99.90
59067;DHT22;44854;50.838;4.438;2023-03-01T10:30:05;4.80;99.90
59067;DHT22;44854;50.838;4.438;2023-03-01T10:32:36;5.00;99.90
59067;DHT22;44854;50.838;4.438;2023-03-01T10:35:14;5.00;99.90
59067;DHT22;44854;50.838;4.438;2023-03-01T10:37:46;5.10;99.90
59067;DHT22;44854;50.838;4.438;2023-03-01T10:40:21;5.20;99.90
59067;DHT22;44854;50.838;4.438;2023-03-01T10:42:48;5.30;99.90
59067;DHT22;44854;50.838;4.438;2023-03-01T10:47:40;5.30;99.90
59067;DHT22;44854;50.838;4.438;2023-03-01T10:50:06;5.30;99.90
59067;DHT22;44854;50.838;4.438;2023-03-01T10:52:42;5.30;99.90
59067;DHT22;44854;50.838;4.438;2023-03-01T10:57:46;5.40;99.90
59067;DHT22;44854;50.838;4.438;2023-03-01T11:02:51;5.70;99.90
59067;DHT22;44854;50.838;4.438;2023-03-01T11:05:26;5.90;99.90
59067;DHT22;44854;50.838;4.438;2023-03-01T11:07:56;5.80;99.90
59067;DHT22;44854;50.838;4.438;2023-03-01T11:10:25;5.90;99.90
59067;DHT22;44854;50.838;4.438;2023-03-01T11:12:51;6.10;99.90
59067;DHT22;44854;50.838;4.438;2023-03-01T11:15:21;6.30;99.90
59067;DHT22;44854;50.838;4.438;2023-03-01T11:17:50;6.10;99.90
59067;DHT22;44854;50.838;4.438;2023-03-01T11:22:46;6.20;99.90
59067;DHT22;44854;50.838;4.438;2023-03-01T11:25:13;6.20;99.90
59067;DHT22;44854;50.838;4.438;2023-03-01T11:27:40;6.30;99.70
59067;DHT22;44854;50.838;4.438;2023-03-01T11:30:18;6.50;99.70
59067;DHT22;44854;50.838;4.438;2023-03-01T11:32:53;6.40;99.10
59067;DHT22;44854;50.838;4.438;2023-03-01T11:35:21;6.50;99.90
59067;DHT22;44854;50.838;4.438;2023-03-01T11:40:33;6.40;99.00
59067;DHT22;44854;50.838;4.438;2023-03-01T11:50:53;6.70;97.90
59067;DHT22;44854;50.838;4.438;2023-03-01T12:00:55;6.80;97.60
59067;DHT22;44854;50.838;4.438;2023-03-01T12:03:25;6.70;97.50
59067;DHT22;44854;50.838;4.438;2023-03-01T12:10:57;6.90;96.50
59067;DHT22;44854;50.838;4.438;2023-03-01T12:16:15;7.00;96.20
59067;DHT22;44854;50.838;4.438;2023-03-01T12:24:01;7.10;96.40
59067;DHT22;44854;50.838;4.438;2023-03-01T12:26:53;7.40;95.80
59067;DHT22;44854;50.838;4.438;2023-03-01T12:29:24;7.30;95.30
59067;DHT22;44854;50.838;4.438;2023-03-01T12:37:27;7.10;94.90
59067;DHT22;44854;50.838;4.438;2023-03-01T12:42:48;7.30;94.80
59067;DHT22;44854;50.838;4.438;2023-03-01T12:50:36;7.80;94.90
59067;DHT22;44854;50.838;4.438;2023-03-01T12:53:03;7.70;94.20
59067;DHT22;44854;50.838;4.438;2023-03-01T12:55:33;7.70;94.10
59067;DHT22;44854;50.838;4.438;2023-03-01T13:01:08;7.70;94.30
59067;DHT22;44854;50.838;4.438;2023-03-01T13:08:44;7.60;93.90
59067;DHT22;44854;50.838;4.438;2023-03-01T13:11:20;7.70;94.10
59067;DHT22;44854;50.838;4.438;2023-03-01T13:13:47;7.80;94.30
59067;DHT22;44854;50.838;4.438;2023-03-01T13:16:21;7.90;94.10
59067;DHT22;44854;50.838;4.438;2023-03-01T13:18:48;7.90;93.00
59067;DHT22;44854;50.838;4.438;2023-03-01T13:21:13;7.90;93.10
59067;DHT22;44854;50.838;4.438;2023-03-01T13:23:54;7.80;93.60
59067;DHT22;44854;50.838;4.438;2023-03-01T13:26:19;7.70;93.70
59067;DHT22;44854;50.838;4.438;2023-03-01T13:38:56;7.80;93.40
59067;DHT22;44854;50.838;4.438;2023-03-01T13:44:21;7.90;93.40
59067;DHT22;44854;50.838;4.438;2023-03-01T13:49:29;8.40;92.70
59067;DHT22;44854;50.838;4.438;2023-03-01T13:51:58;8.50;92.00
59067;DHT22;44854;50.838;4.438;2023-03-01T13:54:31;8.60;91.60
59067;DHT22;44854;50.838;4.438;2023-03-01T13:56:57;8.80;91.50
59067;DHT22;44854;50.838;4.438;2023-03-01T13:59:24;8.80;90.70
59067;DHT22;44854;50.838;4.438;2023-03-01T14:01:55;8.90;90.70
59067;DHT22;44854;50.838;4.438;2023-03-01T14:04:28;9.20;90.70
59067;DHT22;44854;50.838;4.438;2023-03-01T14:07:11;9.10;90.70
59067;DHT22;44854;50.838;4.438;2023-03-01T14:09:41;9.00;91.20
59067;DHT22;44854;50.838;4.438;2023-03-01T14:14:51;8.90;90.70
59067;DHT22;44854;50.838;4.438;2023-03-01T14:19:54;8.70;90.80
59067;DHT22;44854;50.838;4.438;2023-03-01T14:22:25;8.60;91.00
59067;DHT22;44854;50.838;4.438;2023-03-01T14:24:54;8.60;91.10
59067;DHT22;44854;50.838;4.438;2023-03-01T14:27:20;8.30;91.10
59067;DHT22;44854;50.838;4.438;2023-03-01T14:29:56;8.20;91.10
59067;DHT22;44854;50.838;4.438;2023-03-01T14:32:24;8.10;91.50
59067;DHT22;44854;50.838;4.438;2023-03-01T14:34:50;8.10;91.80
59067;DHT22;44854;50.838;4.438;2023-03-01T14:39:45;8.10;91.80
59067;DHT22;44854;50.838;4.438;2023-03-01T14:42:11;8.20;91.80
59067;DHT22;44854;50.838;4.438;2023-03-01T14:44:38;8.30;91.50
59067;DHT22;44854;50.838;4.438;2023-03-01T14:47:03;8.30;91.50
59067;DHT22;44854;50.838;4.438;2023-03-01T14:49:30;8.60;91.10
59067;DHT22;44854;50.838;4.438;2023-03-01T14:52:06;8.40;90.90
59067;DHT22;44854;50.838;4.438;2023-03-01T14:57:01;8.40;91.00
59067;DHT22;44854;50.838;4.438;2023-03-01T14:59:27;8.20;91.30
59067;DHT22;44854;50.838;4.438;2023-03-01T15:01:53;8.30;91.60
59067;DHT22;44854;50.838;4.438;2023-03-01T15:04:20;8.30;91.40
59067;DHT22;44854;50.838;4.438;2023-03-01T15:06:47;8.30;92.30
59067;DHT22;44854;50.838;4.438;2023-03-01T15:09:15;8.40;91.70
59067;DHT22;44854;50.838;4.438;2023-03-01T15:11:42;8.40;91.50
59067;DHT22;44854;50.838;4.438;2023-03-01T15:16:53;8.30;91.50
59067;DHT22;44854;50.838;4.438;2023-03-01T15:19:18;8.40;91.30
59067;DHT22;44854;50.838;4.438;2023-03-01T15:21:46;8.40;91.40
59067;DHT22;44854;50.838;4.438;2023-03-01T15:26:52;8.20;91.60
59067;DHT22;44854;50.838;4.438;2023-03-01T15:29:29;8.10;91.80
59067;DHT22;44854;50.838;4.438;2023-03-01T15:31:57;8.10;91.90
59067;DHT22;44854;50.838;4.438;2023-03-01T15:36:49;7.90;92.60
59067;DHT22;44854;50.838;4.438;2023-03-01T15:44:36;7.90;92.60
59067;DHT22;44854;50.838;4.438;2023-03-01T15:47:03;7.90;92.20
59067;DHT22;44854;50.838;4.438;2023-03-01T15:51:57;7.80;92.50
59067;DHT22;44854;50.838;4.438;2023-03-01T15:54:23;7.80;92.50
59067;DHT22;44854;50.838;4.438;2023-03-01T15:56:50;8.00;92.60
59067;DHT22;44854;50.838;4.438;2023-03-01T15:59:16;8.00;92.60
59067;DHT22;44854;50.838;4.438;2023-03-01T16:01:42;8.00;92.50
59067;DHT22;44854;50.838;4.438;2023-03-01T16:04:09;8.00;92.50
59067;DHT22;44854;50.838;4.438;2023-03-01T16:06:37;8.00;92.50
59067;DHT22;44854;50.838;4.438;2023-03-01T16:09:04;8.10;92.60
59067;DHT22;44854;50.838;4.438;2023-03-01T16:11:30;8.20;93.10
59067;DHT22;44854;50.838;4.438;2023-03-01T16:13:57;8.20;92.00
59067;DHT22;44854;50.838;4.438;2023-03-01T16:16:24;8.10;91.10
59067;DHT22;44854;50.838;4.438;2023-03-01T16:18:50;8.00;91.20
59067;DHT22;44854;50.838;4.438;2023-03-01T16:21:18;7.90;91.50
59067;DHT22;44854;50.838;4.438;2023-03-01T16:23:44;7.80;91.70
59067;DHT22;44854;50.838;4.438;2023-03-01T16:26:10;7.90;91.80
59067;DHT22;44854;50.838;4.438;2023-03-01T16:28:36;7.90;91.70
59067;DHT22;44854;50.838;4.438;2023-03-01T16:31:01;7.80;91.90
59067;DHT22;44854;50.838;4.438;2023-03-01T16:33:27;7.60;91.70
59067;DHT22;44854;50.838;4.438;2023-03-01T16:35:53;7.50;92.10
59067;DHT22;44854;50.838;4.438;2023-03-01T16:38:18;7.50;92.10
59067;DHT22;44854;50.838;4.438;2023-03-01T16:40:48;7.50;92.20
59067;DHT22;44854;50.838;4.438;2023-03-01T16:43:14;7.30;92.40
59067;DHT22;44854;50.838;4.438;2023-03-01T16:45:39;7.30;92.40
59067;DHT22;44854;50.838;4.438;2023-03-01T16:48:06;7.30;92.30
59067;DHT22;44854;50.838;4.438;2023-03-01T16:50:31;7.40;92.30
59067;DHT22;44854;50.838;4.438;2023-03-01T16:52:57;7.30;92.30
59067;DHT22;44854;50.838;4.438;2023-03-01T16:55:23;7.40;92.40
59067;DHT22;44854;50.838;4.438;2023-03-01T16:57:48;7.40;92.40
59067;DHT22;44854;50.838;4.438;2023-03-01T17:00:14;7.30;92.70
59067;DHT22;44854;50.838;4.438;2023-03-01T17:02:40;7.30;92.90
59067;DHT22;44854;50.838;4.438;2023-03-01T17:05:06;7.30;92.90
59067;DHT22;44854;50.838;4.438;2023-03-01T17:07:32;7.40;93.00
59067;DHT22;44854;50.838;4.438;2023-03-01T17:09:59;7.40;93.00
59067;DHT22;44854;50.838;4.438;2023-03-01T17:12:25;7.50;93.00
59067;DHT22;44854;50.838;4.438;2023-03-01T17:14:51;7.50;93.00
59067;DHT22;44854;50.838;4.438;2023-03-01T17:17:16;7.40;93.20
59067;DHT22;44854;50.838;4.438;2023-03-01T17:19:42;7.40;93.80
59067;DHT22;44854;50.838;4.438;2023-03-01T17:22:11;7.20;93.30
59067;DHT22;44854;50.838;4.438;2023-03-01T17:24:38;7.10;93.80
59067;DHT22;44854;50.838;4.438;2023-03-01T17:27:04;7.00;94.10
59067;DHT22;44854;50.838;4.438;2023-03-01T17:29:30;7.00;94.30
59067;DHT22;44854;50.838;4.438;2023-03-01T17:31:56;7.00;94.40
59067;DHT22;44854;50.838;4.438;2023-03-01T17:34:22;7.00;94.80
59067;DHT22;44854;50.838;4.438;2023-03-01T17:36:48;7.00;95.10
59067;DHT22;44854;50.838;4.438;2023-03-01T17:39:15;6.90;95.00
59067;DHT22;44854;50.838;4.438;2023-03-01T17:41:40;6.90;95.30
59067;DHT22;44854;50.838;4.438;2023-03-01T17:44:06;6.90;95.40
59067;DHT22;44854;50.838;4.438;2023-03-01T17:46:31;6.90;95.70
59067;DHT22;44854;50.838;4.438;2023-03-01T17:48:57;6.80;95.70
59067;DHT22;44854;50.838;4.438;2023-03-01T17:51:23;6.80;96.00
59067;DHT22;44854;50.838;4.438;2023-03-01T17:53:48;6.70;96.00
59067;DHT22;44854;50.838;4.438;2023-03-01T17:56:14;6.70;96.00
59067;DHT22;44854;50.838;4.438;2023-03-01T17:58:40;6.40;96.10
59067;DHT22;44854;50.838;4.438;2023-03-01T18:01:13;6.40;96.30
59067;DHT22;44854;50.838;4.438;2023-03-01T18:03:40;6.50;96.40
59067;DHT22;44854;50.838;4.438;2023-03-01T18:06:18;6.50;96.60
59067;DHT22;44854;50.838;4.438;2023-03-01T18:08:45;6.40;96.50
59067;DHT22;44854;50.838;4.438;2023-03-01T18:11:13;6.40;96.20
59067;DHT22;44854;50.838;4.438;2023-03-01T18:13:39;6.40;96.50
59067;DHT22;44854;50.838;4.438;2023-03-01T18:16:09;6.30;96.50
59067;DHT22;44854;50.838;4.438;2023-03-01T18:18:35;6.30;96.70
59067;DHT22;44854;50.838;4.438;2023-03-01T18:21:01;6.20;96.60
59067;DHT22;44854;50.838;4.438;2023-03-01T18:23:27;6.20;96.70
59067;DHT22;44854;50.838;4.438;2023-03-01T18:25:56;6.00;96.90
59067;DHT22;44854;50.838;4.438;2023-03-01T18:28:22;6.00;97.20
59067;DHT22;44854;50.838;4.438;2023-03-01T18:30:54;6.00;97.20
59067;DHT22;44854;50.838;4.438;2023-03-01T18:33:20;5.90;97.40
59067;DHT22;44854;50.838;4.438;2023-03-01T18:35:46;5.90;97.40
59067;DHT22;44854;50.838;4.438;2023-03-01T18:38:12;5.90;97.60
59067;DHT22;44854;50.838;4.438;2023-03-01T18:40:38;5.90;97.70
59067;DHT22;44854;50.838;4.438;2023-03-01T18:43:04;5.90;97.60
59067;DHT22;44854;50.838;4.438;2023-03-01T18:45:30;5.90;97.50
59067;DHT22;44854;50.838;4.438;2023-03-01T18:47:55;5.90;97.70
59067;DHT22;44854;50.838;4.438;2023-03-01T18:50:21;5.80;97.90
59067;DHT22;44854;50.838;4.438;2023-03-01T18:52:47;5.80;98.00
59067;DHT22;44854;50.838;4.438;2023-03-01T18:55:12;5.80;98.00
59067;DHT22;44854;50.838;4.438;2023-03-01T18:57:38;5.70;97.90
59067;DHT22;44854;50.838;4.438;2023-03-01T19:00:04;5.60;98.10
59067;DHT22;44854;50.838;4.438;2023-03-01T19:02:29;5.70;98.30
59067;DHT22;44854;50.838;4.438;2023-03-01T19:04:55;5.60;98.60
59067;DHT22;44854;50.838;4.438;2023-03-01T19:07:21;5.50;98.20
59067;DHT22;44854;50.838;4.438;2023-03-01T19:09:46;5.40;98.50
59067;DHT22;44854;50.838;4.438;2023-03-01T19:12:12;5.30;98.60
59067;DHT22;44854;50.838;4.438;2023-03-01T19:14:37;5.30;98.70
59067;DHT22;44854;50.838;4.438;2023-03-01T19:17:03;5.30;98.90
59067;DHT22;44854;50.838;4.438;2023-03-01T19:19:29;5.30;99.00
59067;DHT22;44854;50.838;4.438;2023-03-01T19:21:54;5.40;99.00
59067;DHT22;44854;50.838;4.438;2023-03-01T19:24:20;5.40;98.90
59067;DHT22;44854;50.838;4.438;2023-03-01T19:26:46;5.40;99.10
59067;DHT22;44854;50.838;4.438;2023-03-01T19:29:11;5.50;99.10
59067;DHT22;44854;50.838;4.438;2023-03-01T19:31:37;5.40;99.00
59067;DHT22;44854;50.838;4.438;2023-03-01T19:34:03;5.40;99.30
59067;DHT22;44854;50.838;4.438;2023-03-01T19:36:29;5.30;99.20
59067;DHT22;44854;50.838;4.438;2023-03-01T19:38:58;5.30;99.30
59067;DHT22;44854;50.838;4.438;2023-03-01T19:41:24;5.20;99.60
59067;DHT22;44854;50.838;4.438;2023-03-01T19:43:51;5.10;99.80
59067;DHT22;44854;50.838;4.438;2023-03-01T19:46:18;5.10;99.80
59067;DHT22;44854;50.838;4.438;2023-03-01T19:48:43;5.00;99.60
59067;DHT22;44854;50.838;4.438;2023-03-01T19:51:09;5.10;99.70
59067;DHT22;44854;50.838;4.438;2023-03-01T19:53:36;5.00;99.50
59067;DHT22;44854;50.838;4.438;2023-03-01T19:56:02;5.10;99.50
59067;DHT22;44854;50.838;4.438;2023-03-01T19:58:28;5.00;99.60
59067;DHT22;44854;50.838;4.438;2023-03-01T20:00:54;5.00;99.90
59067;DHT22;44854;50.838;4.438;2023-03-01T20:03:25;4.90;99.90
59067;DHT22;44854;50.838;4.438;2023-03-01T20:05:51;4.80;99.90
59067;DHT22;44854;50.838;4.438;2023-03-01T20:08:16;4.90;99.90
59067;DHT22;44854;50.838;4.438;2023-03-01T20:10:42;4.90;99.90
59067;DHT22;44854;50.838;4.438;2023-03-01T20:13:08;4.90;99.90
59067;DHT22;44854;50.838;4.438;2023-03-01T20:15:33;4.80;99.90
59067;DHT22;44854;50.838;4.438;2023-03-01T20:17:59;4.80;99.90
59067;DHT22;44854;50.838;4.438;2023-03-01T20:20:24;4.70;99.90
59067;DHT22;44854;50.838;4.438;2023-03-01T20:22:50;4.80;99.90
59067;DHT22;44854;50.838;4.438;2023-03-01T20:25:15;4.80;99.90
59067;DHT22;44854;50.838;4.438;2023-03-01T20:27:41;4.70;99.90
59067;DHT22;44854;50.838;4.438;2023-03-01T20:30:12;4.70;99.90
59067;DHT22;44854;50.838;4.438;2023-03-01T20:32:37;4.50;99.90
59067;DHT22;44854;50.838;4.438;2023-03-01T20:35:03;4.50;99.90
59067;DHT22;44854;50.838;4.438;2023-03-01T20:37:29;4.60;99.90
59067;DHT22;44854;50.838;4.438;2023-03-01T20:39:54;4.50;99.90
59067;DHT22;44854;50.838;4.438;2023-03-01T20:42:20;4.50;99.90
59067;DHT22;44854;50.838;4.438;2023-03-01T20:44:45;4.50;99.90
59067;DHT22;44854;50.838;4.438;2023-03-01T20:47:11;4.60;99.90
59067;DHT22;44854;50.838;4.438;2023-03-01T20:49:37;4.50;99.90
59067;DHT22;44854;50.838;4.438;2023-03-01T20:52:03;4.50;99.90
59067;DHT22;44854;50.838;4.438;2023-03-01T20:54:29;4.60;99.90
59067;DHT22;44854;50.838;4.438;2023-03-01T20:56:55;4.50;99.90
59067;DHT22;44854;50.838;4.438;2023-03-01T20:59:20;4.50;99.90
59067;DHT22;44854;50.838;4.438;2023-03-01T21:01:48;4.40;99.90
59067;DHT22;44854;50.838;4.438;2023-03-01T21:04:13;4.40;99.90
59067;DHT22;44854;50.838;4.438;2023-03-01T21:06:42;4.30;99.90
59067;DHT22;44854;50.838;4.438;2023-03-01T21:09:08;4.10;99.90
59067;DHT22;44854;50.838;4.438;2023-03-01T21:11:33;4.20;99.90
59067;DHT22;44854;50.838;4.438;2023-03-01T21:13:59;4.10;99.90
59067;DHT22;44854;50.838;4.438;2023-03-01T21:16:25;4.00;99.90
59067;DHT22;44854;50.838;4.438;2023-03-01T21:18:50;4.00;99.90
59067;DHT22;44854;50.838;4.438;2023-03-01T21:21:17;4.00;99.90
59067;DHT22;44854;50.838;4.438;2023-03-01T21:23:43;3.90;99.90
59067;DHT22;44854;50.838;4.438;2023-03-01T21:26:10;3.90;99.90
59067;DHT22;44854;50.838;4.438;2023-03-01T21:28:39;3.90;99.90
59067;DHT22;44854;50.838;4.438;2023-03-01T21:31:06;3.80;99.90
59067;DHT22;44854;50.838;4.438;2023-03-01T21:33:32;3.80;99.90
59067;DHT22;44854;50.838;4.438;2023-03-01T21:35:58;3.80;99.90
59067;DHT22;44854;50.838;4.438;2023-03-01T21:38:31;3.80;99.90
59067;DHT22;44854;50.838;4.438;2023-03-01T21:41:06;3.80;99.90
59067;DHT22;44854;50.838;4.438;2023-03-01T21:43:32;3.70;99.90
59067;DHT22;44854;50.838;4.438;2023-03-01T21:46:02;3.70;99.90
59067;DHT22;44854;50.838;4.438;2023-03-01T21:48:28;3.60;99.90
59067;DHT22;44854;50.838;4.438;2023-03-01T21:50:57;3.60;99.90
59067;DHT22;44854;50.838;4.438;2023-03-01T21:53:23;3.60;99.90
59067;DHT22;44854;50.838;4.438;2023-03-01T21:55:49;3.60;99.90
59067;DHT22;44854;50.838;4.438;2023-03-01T21:58:16;3.60;99.90
59067;DHT22;44854;50.838;4.438;2023-03-01T22:00:42;3.60;99.90
59067;DHT22;44854;50.838;4.438;2023-03-01T22:03:07;3.50;99.90
59067;DHT22;44854;50.838;4.438;2023-03-01T22:05:33;3.40;99.90
59067;DHT22;44854;50.838;4.438;2023-03-01T22:07:59;3.30;99.90
59067;DHT22;44854;50.838;4.438;2023-03-01T22:10:24;3.30;99.90
59067;DHT22;44854;50.838;4.438;2023-03-01T22:12:53;3.30;99.90
59067;DHT22;44854;50.838;4.438;2023-03-01T22:15:19;3.30;99.90
59067;DHT22;44854;50.838;4.438;2023-03-01T22:17:44;3.30;99.90
59067;DHT22;44854;50.838;4.438;2023-03-01T22:20:10;3.30;99.90
59067;DHT22;44854;50.838;4.438;2023-03-01T22:22:37;3.30;99.90
59067;DHT22;44854;50.838;4.438;2023-03-01T22:25:03;3.20;99.90
59067;DHT22;44854;50.838;4.438;2023-03-01T22:27:28;3.10;99.90
59067;DHT22;44854;50.838;4.438;2023-03-01T22:29:55;3.10;99.90
59067;DHT22;44854;50.838;4.438;2023-03-01T22:32:20;3.00;99.90
59067;DHT22;44854;50.838;4.438;2023-03-01T22:34:46;3.10;99.90
59067;DHT22;44854;50.838;4.438;2023-03-01T22:37:12;3.00;99.90
59067;DHT22;44854;50.838;4.438;2023-03-01T22:39:37;3.00;99.90
59067;DHT22;44854;50.838;4.438;2023-03-01T22:42:03;2.90;99.90
59067;DHT22;44854;50.838;4.438;2023-03-01T22:44:30;2.90;99.90
59067;DHT22;44854;50.838;4.438;2023-03-01T22:46:56;2.90;99.90
59067;DHT22;44854;50.838;4.438;2023-03-01T22:49:22;2.90;99.90
59067;DHT22;44854;50.838;4.438;2023-03-01T22:51:47;2.90;99.90
59067;DHT22;44854;50.838;4.438;2023-03-01T22:54:14;2.80;99.90
59067;DHT22;44854;50.838;4.438;2023-03-01T22:56:39;2.80;99.90
59067;DHT22;44854;50.838;4.438;2023-03-01T22:59:08;2.90;99.90
59067;DHT22;44854;50.838;4.438;2023-03-01T23:01:34;2.90;99.90
59067;DHT22;44854;50.838;4.438;2023-03-01T23:04:00;2.90;99.90
59067;DHT22;44854;50.838;4.438;2023-03-01T23:06:26;2.90;99.90